Time;durP1;ratioP1;P1;durP2;ratioP2;P2;SDS_P1;SDS_P2;PMS_P1;PMS_P2;Temp;Humidity;BMP_temperature;BMP_pressure;BME280_temperature;BME280_humidity;BME280_pressure;Samples;Min_cycle;Max_cycle;Signal;HPM_P1;HPM_P2
2023/12/16 00:01:49;;;;;;;8.52;2.10;;;6.90;99.90;;;;;;5049238;28;20504;-79
2023/12/16 00:04:15;;;;;;;13.02;2.60;;;6.90;99.90;;;;;;5048054;28;20247;-74
2023/12/16 00:06:40;;;;;;;7.70;2.17;;;6.90;99.90;;;;;;5050493;28;20045;-74
2023/12/16 00:09:06;;;;;;;7.57;2.38;;;6.90;99.90;;;;;;5062496;28;20048;-74
2023/12/16 00:11:32;;;;;;;10.02;2.28;;;6.90;99.90;;;;;;5070622;28;20053;-74
2023/12/16 00:13:57;;;;;;;8.80;2.38;;;7.00;99.90;;;;;;5067256;28;20052;-75
2023/12/16 00:16:25;;;;;;;6.50;2.30;;;6.90;99.90;;;;;;5057687;28;20072;-75
2023/12/16 00:18:51;;;;;;;6.20;2.03;;;6.90;99.90;;;;;;5072051;28;20060;-75
2023/12/16 00:21:17;;;;;;;6.78;2.20;;;7.00;99.90;;;;;;5062540;28;20049;-75
2023/12/16 00:23:43;;;;;;;11.05;2.20;;;6.90;99.90;;;;;;5060057;28;20076;-75
2023/12/16 00:26:08;;;;;;;5.85;1.98;;;6.90;99.90;;;;;;5053628;28;20052;-75
2023/12/16 00:28:34;;;;;;;7.43;2.03;;;6.90;99.90;;;;;;5053250;28;20059;-75
2023/12/16 00:30:59;;;;;;;6.80;1.50;;;7.00;99.90;;;;;;5068627;28;20048;-75
2023/12/16 00:33:25;;;;;;;8.88;1.98;;;6.90;99.90;;;;;;5041604;28;20045;-75
2023/12/16 00:35:51;;;;;;;7.95;1.80;;;7.00;99.90;;;;;;5057216;28;20048;-75
2023/12/16 00:38:16;;;;;;;13.57;2.13;;;6.90;99.90;;;;;;5052812;28;20052;-75
2023/12/16 00:40:42;;;;;;;12.68;1.98;;;6.90;99.90;;;;;;5068268;28;20110;-76
2023/12/16 00:43:08;;;;;;;7.13;1.92;;;6.90;99.90;;;;;;5061884;28;20044;-76
2023/12/16 00:45:34;;;;;;;10.27;2.17;;;7.00;99.90;;;;;;5057060;28;20052;-74
2023/12/16 00:47:59;;;;;;;10.23;1.63;;;6.90;99.90;;;;;;5067893;28;20055;-74
2023/12/16 00:50:25;;;;;;;12.15;2.47;;;6.90;99.90;;;;;;5061739;28;20079;-74
2023/12/16 00:52:51;;;;;;;5.97;1.55;;;6.80;99.90;;;;;;5059163;28;20059;-74
2023/12/16 00:55:16;;;;;;;9.00;1.80;;;6.80;99.90;;;;;;5066881;28;20048;-75
2023/12/16 00:57:42;;;;;;;14.32;2.03;;;6.80;99.90;;;;;;5070853;28;20457;-75
2023/12/16 01:00:08;;;;;;;12.48;1.70;;;6.70;99.90;;;;;;5071512;28;20454;-77
2023/12/16 01:02:34;;;;;;;10.52;2.33;;;6.70;99.90;;;;;;5067355;28;20049;-75
2023/12/16 01:05:00;;;;;;;9.25;2.30;;;6.70;99.90;;;;;;5059374;28;20045;-75
2023/12/16 01:07:25;;;;;;;10.57;2.05;;;6.60;99.90;;;;;;5068442;28;20047;-74
2023/12/16 01:09:51;;;;;;;6.15;1.50;;;6.60;99.90;;;;;;5043690;28;20055;-74
2023/12/16 01:12:17;;;;;;;9.20;1.77;;;6.70;99.90;;;;;;5063584;28;20040;-75
2023/12/16 01:14:43;;;;;;;7.15;1.50;;;6.60;99.90;;;;;;5060965;28;20091;-75
2023/12/16 01:17:08;;;;;;;6.35;1.63;;;6.70;99.90;;;;;;5052238;28;20102;-75
2023/12/16 01:19:34;;;;;;;11.38;1.70;;;6.60;99.90;;;;;;5057466;28;20408;-74
2023/12/16 01:22:00;;;;;;;6.35;1.60;;;6.60;99.90;;;;;;5065431;28;20052;-75
2023/12/16 01:24:26;;;;;;;7.40;1.70;;;6.60;99.90;;;;;;5071508;28;20373;-75
2023/12/16 01:26:52;;;;;;;7.93;1.52;;;6.50;99.90;;;;;;5055315;28;20106;-76
2023/12/16 01:29:17;;;;;;;11.13;1.70;;;6.60;99.90;;;;;;5051657;28;20122;-75
2023/12/16 01:31:43;;;;;;;9.20;1.50;;;6.60;99.90;;;;;;5051636;28;20041;-75
2023/12/16 01:34:08;;;;;;;12.45;1.83;;;6.50;99.90;;;;;;5060907;28;20116;-76
2023/12/16 01:36:34;;;;;;;13.23;2.60;;;6.50;99.90;;;;;;5063751;28;20046;-74
2023/12/16 01:39:00;;;;;;;8.15;1.50;;;6.50;99.90;;;;;;5066140;28;20051;-74
2023/12/16 01:41:26;;;;;;;9.98;1.35;;;6.50;99.90;;;;;;5071448;28;20044;-75
2023/12/16 01:43:52;;;;;;;8.73;1.80;;;6.40;99.90;;;;;;5062613;28;20049;-75
2023/12/16 01:46:18;;;;;;;9.40;1.98;;;6.40;99.90;;;;;;5065474;28;20052;-74
2023/12/16 01:48:45;;;;;;;12.57;1.50;;;6.60;99.90;;;;;;5065051;28;21216;-76
2023/12/16 01:51:11;;;;;;;9.65;1.98;;;6.40;99.90;;;;;;5052168;28;20134;-74
2023/12/16 01:53:39;;;;;;;13.32;1.90;;;6.40;99.90;;;;;;5062639;28;20534;-75
2023/12/16 01:56:06;;;;;;;10.45;2.17;;;6.70;99.90;;;;;;5063139;28;20052;-74
2023/12/16 01:58:32;;;;;;;9.80;1.70;;;6.40;99.90;;;;;;5070388;28;20044;-78
2023/12/16 02:00:58;;;;;;;8.77;2.03;;;6.40;99.90;;;;;;5052738;28;20546;-74
2023/12/16 02:03:27;;;;;;;8.63;1.95;;;6.30;99.90;;;;;;5058535;28;20060;-75
2023/12/16 02:05:53;;;;;;;8.85;2.05;;;6.30;99.90;;;;;;5071897;28;20056;-75
2023/12/16 02:08:18;;;;;;;13.52;2.17;;;6.40;99.90;;;;;;5067587;28;20431;-76
2023/12/16 02:10:44;;;;;;;9.40;1.90;;;6.30;99.90;;;;;;5058957;28;20067;-74
2023/12/16 02:13:10;;;;;;;15.52;2.35;;;6.30;99.90;;;;;;5062546;28;20044;-74
2023/12/16 02:15:35;;;;;;;6.30;1.60;;;6.30;99.90;;;;;;5056515;28;20037;-74
2023/12/16 02:18:01;;;;;;;8.23;2.20;;;6.40;99.90;;;;;;5052281;28;20566;-75
2023/12/16 02:20:27;;;;;;;8.45;1.70;;;6.30;99.90;;;;;;5050884;28;20400;-76
2023/12/16 02:22:54;;;;;;;13.95;2.30;;;6.30;99.90;;;;;;5067845;28;20136;-74
2023/12/16 02:25:20;;;;;;;9.63;2.03;;;6.30;99.90;;;;;;5049736;28;20037;-74
2023/12/16 02:27:46;;;;;;;11.85;2.33;;;6.30;99.90;;;;;;5054541;28;20036;-75
2023/12/16 02:30:12;;;;;;;10.60;2.13;;;6.30;99.90;;;;;;5069009;28;20049;-74
2023/12/16 02:32:38;;;;;;;14.43;2.47;;;6.40;99.90;;;;;;5065965;28;20546;-75
2023/12/16 02:35:04;;;;;;;11.13;2.33;;;6.30;99.90;;;;;;5064754;28;20094;-75
2023/12/16 02:37:30;;;;;;;15.10;2.20;;;6.30;99.90;;;;;;5064956;28;20473;-74
2023/12/16 02:39:55;;;;;;;15.38;2.17;;;6.30;99.90;;;;;;5055267;28;20110;-74
2023/12/16 02:42:21;;;;;;;9.02;2.00;;;6.30;99.90;;;;;;5051438;28;20055;-74
2023/12/16 02:44:47;;;;;;;12.10;1.90;;;6.30;99.90;;;;;;5060970;28;20048;-75
2023/12/16 02:47:13;;;;;;;8.75;1.80;;;6.30;99.90;;;;;;5069948;28;20357;-75
2023/12/16 02:49:38;;;;;;;9.85;2.60;;;6.20;99.90;;;;;;5050103;28;20045;-76
2023/12/16 02:52:04;;;;;;;14.10;2.70;;;6.20;99.90;;;;;;5049096;28;20048;-75
2023/12/16 02:54:30;;;;;;;12.95;2.13;;;6.20;99.90;;;;;;5053306;28;20041;-74
2023/12/16 02:56:56;;;;;;;15.38;2.47;;;6.20;99.90;;;;;;5067766;28;20109;-74
2023/12/16 02:59:21;;;;;;;8.43;2.30;;;6.20;99.90;;;;;;5069845;28;20040;-74
2023/12/16 03:01:47;;;;;;;16.38;3.38;;;6.60;99.90;;;;;;5069476;28;20462;-75
2023/12/16 03:04:13;;;;;;;9.32;2.10;;;6.10;99.90;;;;;;5065566;28;20086;-75
2023/12/16 03:06:45;;;;;;;10.05;2.20;;;6.10;99.90;;;;;;5057662;28;20045;-75
2023/12/16 03:09:11;;;;;;;9.35;2.30;;;6.10;99.90;;;;;;5069301;28;20060;-74
2023/12/16 03:11:37;;;;;;;11.32;2.10;;;6.00;99.90;;;;;;5062849;28;20049;-74
2023/12/16 03:14:03;;;;;;;13.93;2.47;;;6.00;99.90;;;;;;5055729;28;20048;-74
2023/12/16 03:16:28;;;;;;;8.90;1.90;;;6.00;99.90;;;;;;5066839;28;20079;-75
2023/12/16 03:18:54;;;;;;;9.65;2.55;;;6.00;99.90;;;;;;5053950;28;20057;-77
2023/12/16 03:21:19;;;;;;;11.82;2.85;;;5.90;99.90;;;;;;5049602;28;20053;-74
2023/12/16 03:23:45;;;;;;;10.38;2.42;;;5.90;99.90;;;;;;5052377;28;20541;-74
2023/12/16 03:26:11;;;;;;;12.02;2.25;;;5.90;99.90;;;;;;5043474;28;20040;-74
2023/12/16 03:28:36;;;;;;;7.20;2.63;;;5.90;99.90;;;;;;5049296;28;20161;-74
2023/12/16 03:31:02;;;;;;;9.40;2.33;;;5.90;99.90;;;;;;5064583;28;20288;-75
2023/12/16 03:33:28;;;;;;;13.13;2.25;;;5.90;99.90;;;;;;5064386;28;20079;-74
2023/12/16 03:35:53;;;;;;;13.45;2.80;;;5.90;99.90;;;;;;5060862;28;20145;-75
2023/12/16 03:38:19;;;;;;;15.00;2.30;;;5.90;99.90;;;;;;5065303;28;20678;-75
2023/12/16 03:40:45;;;;;;;12.77;2.47;;;5.90;99.90;;;;;;5061326;28;20166;-74
2023/12/16 03:43:11;;;;;;;14.98;2.20;;;5.90;99.90;;;;;;5050970;28;20045;-74
2023/12/16 03:45:37;;;;;;;14.05;2.45;;;5.90;99.90;;;;;;5060608;28;20512;-75
2023/12/16 03:48:02;;;;;;;11.18;2.63;;;5.90;99.90;;;;;;5070261;28;20052;-75
2023/12/16 03:50:28;;;;;;;12.07;2.58;;;5.80;99.90;;;;;;5067745;28;20049;-74
2023/12/16 03:52:55;;;;;;;9.63;2.63;;;5.80;99.90;;;;;;5069314;28;20045;-75
2023/12/16 03:55:20;;;;;;;9.07;2.00;;;5.80;99.90;;;;;;5054248;28;20380;-74
2023/12/16 03:57:46;;;;;;;11.93;2.25;;;5.80;99.90;;;;;;5053283;28;20048;-75
2023/12/16 04:00:12;;;;;;;12.60;2.83;;;5.80;99.90;;;;;;5059720;28;20127;-76
2023/12/16 04:02:38;;;;;;;10.20;2.17;;;5.80;99.90;;;;;;5068049;28;20123;-75
2023/12/16 04:05:04;;;;;;;11.98;2.60;;;5.80;99.90;;;;;;5053885;28;20128;-75
2023/12/16 04:07:29;;;;;;;12.52;2.60;;;5.80;99.90;;;;;;5059037;28;20041;-74
2023/12/16 04:09:55;;;;;;;10.38;2.30;;;5.80;99.90;;;;;;5065914;28;20373;-75
2023/12/16 04:12:21;;;;;;;11.98;1.92;;;5.80;99.90;;;;;;5055113;28;20040;-75
2023/12/16 04:14:46;;;;;;;14.65;2.78;;;5.80;99.90;;;;;;5051699;28;20051;-74
2023/12/16 04:17:12;;;;;;;12.88;2.38;;;5.80;99.90;;;;;;5054389;28;20419;-75
2023/12/16 04:19:38;;;;;;;12.85;2.33;;;5.80;99.90;;;;;;5066654;28;20098;-75
2023/12/16 04:22:04;;;;;;;10.27;2.00;;;5.70;99.90;;;;;;5067887;28;20127;-75
2023/12/16 04:24:30;;;;;;;12.85;3.30;;;6.00;99.90;;;;;;5064404;28;20522;-74
2023/12/16 04:26:55;;;;;;;14.23;1.95;;;5.80;99.90;;;;;;5068953;28;20076;-74
2023/12/16 04:29:21;;;;;;;15.00;2.35;;;5.80;99.90;;;;;;5059753;28;20467;-74
2023/12/16 04:31:47;;;;;;;11.05;2.45;;;5.80;99.90;;;;;;5065863;28;20050;-75
2023/12/16 04:34:13;;;;;;;12.85;2.60;;;5.70;99.90;;;;;;5057652;28;20364;-74
2023/12/16 04:36:38;;;;;;;9.73;2.55;;;5.70;99.90;;;;;;5058164;28;20044;-75
2023/12/16 04:39:07;;;;;;;16.95;3.53;;;5.70;99.90;;;;;;5065467;28;20128;-74
2023/12/16 04:41:33;;;;;;;12.38;2.85;;;5.70;99.90;;;;;;5065481;28;20040;-74
2023/12/16 04:43:59;;;;;;;18.92;3.00;;;5.70;99.90;;;;;;5064648;28;20048;-75
2023/12/16 04:46:25;;;;;;;11.88;2.42;;;5.70;99.90;;;;;;5062929;28;20506;-74
2023/12/16 04:48:51;;;;;;;15.35;2.63;;;5.70;99.90;;;;;;5061444;28;20053;-75
2023/12/16 04:51:17;;;;;;;9.75;2.70;;;5.70;99.90;;;;;;5051404;28;20043;-76
2023/12/16 04:53:42;;;;;;;8.95;2.78;;;5.70;99.90;;;;;;5064026;28;20036;-75
2023/12/16 04:56:08;;;;;;;15.57;4.50;;;5.70;99.90;;;;;;5071422;28;20131;-75
2023/12/16 04:58:34;;;;;;;12.18;2.60;;;5.70;99.90;;;;;;5069333;28;20045;-74
2023/12/16 05:01:00;;;;;;;15.25;3.15;;;5.70;99.90;;;;;;5058355;28;20420;-75
2023/12/16 05:03:26;;;;;;;12.70;2.90;;;5.60;99.90;;;;;;5072295;28;20127;-74
2023/12/16 05:05:52;;;;;;;15.20;3.10;;;5.60;99.90;;;;;;5066026;28;20044;-75
2023/12/16 05:08:19;;;;;;;15.98;2.80;;;5.60;99.90;;;;;;5057508;28;20047;-75
2023/12/16 05:10:47;;;;;;;22.90;3.67;;;5.60;99.90;;;;;;5043910;28;20044;-75
2023/12/16 05:13:14;;;;;;;20.60;3.72;;;5.60;99.90;;;;;;5067415;28;20101;-75
2023/12/16 05:15:41;;;;;;;9.57;3.97;;;5.60;99.90;;;;;;5061899;28;20079;-74
2023/12/16 05:18:07;;;;;;;17.17;3.08;;;5.60;99.90;;;;;;5059494;28;20056;-74
2023/12/16 05:20:33;;;;;;;18.58;3.33;;;5.60;99.90;;;;;;5066198;28;20056;-75
2023/12/16 05:22:59;;;;;;;16.65;2.90;;;5.80;99.90;;;;;;5070210;28;20114;-74
2023/12/16 05:25:28;;;;;;;14.80;2.88;;;5.60;99.90;;;;;;5065808;28;20488;-74
2023/12/16 05:27:54;;;;;;;11.45;2.90;;;5.60;99.90;;;;;;5063966;28;20064;-75
2023/12/16 05:30:20;;;;;;;19.83;3.58;;;5.60;99.90;;;;;;5052790;28;20053;-75
2023/12/16 05:32:45;;;;;;;16.20;3.35;;;5.60;99.90;;;;;;5065673;28;20048;-75
2023/12/16 05:35:11;;;;;;;20.83;3.08;;;5.50;99.90;;;;;;5058985;28;20032;-74
2023/12/16 05:37:37;;;;;;;26.02;3.90;;;5.50;99.90;;;;;;5058334;28;20056;-76
2023/12/16 05:40:03;;;;;;;16.52;4.50;;;5.50;99.90;;;;;;5054209;28;20052;-74
2023/12/16 05:42:29;;;;;;;21.50;3.45;;;5.60;99.90;;;;;;5066291;28;20060;-75
2023/12/16 05:44:55;;;;;;;12.25;3.90;;;5.60;99.90;;;;;;5058816;28;20099;-74
2023/12/16 05:47:21;;;;;;;15.43;3.88;;;5.60;99.90;;;;;;5054470;28;20040;-74
2023/12/16 05:49:46;;;;;;;16.95;3.50;;;5.60;99.90;;;;;;5062383;28;20172;-74
2023/12/16 05:52:12;;;;;;;16.50;3.65;;;5.50;99.90;;;;;;5064605;28;20052;-76
2023/12/16 05:54:38;;;;;;;13.73;3.83;;;5.60;99.90;;;;;;5067661;28;20049;-75
2023/12/16 05:57:04;;;;;;;25.85;5.85;;;5.60;99.90;;;;;;5070804;28;20053;-75
2023/12/16 05:59:30;;;;;;;18.27;4.15;;;5.60;99.90;;;;;;5039532;28;20044;-75
2023/12/16 06:01:55;;;;;;;12.75;3.53;;;5.60;99.90;;;;;;5052888;28;20041;-75
2023/12/16 06:04:22;;;;;;;16.90;4.20;;;5.80;99.90;;;;;;5051871;28;20041;-74
2023/12/16 06:06:47;;;;;;;24.67;4.35;;;5.60;99.90;;;;;;5052421;28;20554;-74
2023/12/16 06:09:13;;;;;;;15.35;4.10;;;5.70;99.90;;;;;;5065407;28;20045;-74
2023/12/16 06:11:39;;;;;;;12.38;3.85;;;5.70;99.90;;;;;;5064748;28;20044;-74
2023/12/16 06:14:04;;;;;;;18.33;3.97;;;5.70;99.90;;;;;;5051392;28;20059;-74
2023/12/16 06:16:30;;;;;;;16.25;4.65;;;5.80;99.90;;;;;;5051789;28;20041;-74
2023/12/16 06:18:56;;;;;;;18.88;4.10;;;5.80;99.90;;;;;;5047127;28;20053;-74
2023/12/16 06:21:21;;;;;;;15.32;4.03;;;5.80;99.90;;;;;;5063808;28;20045;-74
2023/12/16 06:23:47;;;;;;;14.73;4.15;;;5.90;99.90;;;;;;5064682;28;20040;-76
2023/12/16 06:26:13;;;;;;;18.95;4.68;;;5.90;99.90;;;;;;5064577;28;20041;-75
2023/12/16 06:28:38;;;;;;;24.08;5.03;;;5.90;99.90;;;;;;5052215;28;20041;-73
2023/12/16 06:31:04;;;;;;;16.30;3.90;;;6.00;99.90;;;;;;5058182;28;20103;-73
2023/12/16 06:33:30;;;;;;;14.88;3.85;;;6.00;99.90;;;;;;5070566;28;20051;-73
2023/12/16 06:35:55;;;;;;;24.48;5.35;;;6.00;99.90;;;;;;5068018;28;20044;-73
2023/12/16 06:38:21;;;;;;;27.35;5.18;;;6.00;99.90;;;;;;5063116;28;20045;-73
2023/12/16 06:40:46;;;;;;;20.90;4.55;;;6.00;99.90;;;;;;5051925;28;20051;-73
2023/12/16 06:43:12;;;;;;;25.58;5.07;;;6.00;99.90;;;;;;5066889;28;20123;-74
2023/12/16 06:45:38;;;;;;;17.10;4.95;;;6.10;99.90;;;;;;5055419;28;20048;-73
2023/12/16 06:48:04;;;;;;;20.98;5.10;;;6.20;99.90;;;;;;5057389;28;20499;-73
2023/12/16 06:50:30;;;;;;;23.67;5.47;;;6.10;99.90;;;;;;5070976;28;20486;-73
2023/12/16 06:52:55;;;;;;;23.40;4.80;;;6.20;99.90;;;;;;5067575;28;20124;-74
2023/12/16 06:55:21;;;;;;;22.98;5.43;;;6.10;99.90;;;;;;5063197;28;20036;-73
2023/12/16 06:57:47;;;;;;;19.17;5.03;;;6.10;99.90;;;;;;5058653;28;20496;-74
2023/12/16 07:00:13;;;;;;;19.48;4.57;;;6.20;99.90;;;;;;5051641;28;20053;-73
2023/12/16 07:02:41;;;;;;;21.17;5.18;;;6.20;99.90;;;;;;5060379;28;20041;-74
2023/12/16 07:05:09;;;;;;;22.45;5.70;;;6.20;99.90;;;;;;5066255;28;20056;-74
2023/12/16 07:07:35;;;;;;;18.40;5.65;;;6.20;99.90;;;;;;5055717;28;20492;-73
2023/12/16 07:10:01;;;;;;;22.95;5.72;;;6.20;99.90;;;;;;5067589;28;20047;-73
2023/12/16 07:12:27;;;;;;;25.13;5.05;;;6.20;99.90;;;;;;5055633;28;20063;-73
2023/12/16 07:14:53;;;;;;;25.95;6.53;;;6.20;99.90;;;;;;5054015;28;20477;-73
2023/12/16 07:17:19;;;;;;;18.70;5.22;;;6.30;99.90;;;;;;5063932;28;20069;-75
2023/12/16 07:19:44;;;;;;;20.30;6.20;;;6.20;99.90;;;;;;5056070;28;20137;-74
2023/12/16 07:22:10;;;;;;;19.88;5.32;;;6.30;99.90;;;;;;5051848;28;20045;-72
2023/12/16 07:24:37;;;;;;;25.00;6.15;;;6.30;99.90;;;;;;5053547;28;20049;-74
2023/12/16 07:27:03;;;;;;;25.10;5.55;;;6.30;99.90;;;;;;5061718;28;20067;-74
2023/12/16 07:29:34;;;;;;;26.00;6.18;;;6.30;99.90;;;;;;5056522;28;20660;-74
2023/12/16 07:31:59;;;;;;;24.02;5.03;;;6.40;99.90;;;;;;5057952;28;20044;-74
2023/12/16 07:34:25;;;;;;;25.30;6.13;;;6.40;99.90;;;;;;5054505;28;20187;-73
2023/12/16 07:36:51;;;;;;;25.02;6.13;;;6.40;99.90;;;;;;5068802;28;20381;-73
2023/12/16 07:39:17;;;;;;;22.08;6.38;;;6.40;99.90;;;;;;5052175;28;20048;-74
2023/12/16 07:41:43;;;;;;;33.75;7.03;;;6.40;99.90;;;;;;5052578;28;20048;-73
2023/12/16 07:44:09;;;;;;;29.63;7.43;;;6.40;99.90;;;;;;5057151;28;20052;-74
2023/12/16 07:46:34;;;;;;;33.25;7.40;;;6.40;99.90;;;;;;5065519;28;20407;-74
2023/12/16 07:49:00;;;;;;;20.27;6.15;;;6.40;99.90;;;;;;5056988;28;20066;-73
2023/12/16 07:51:25;;;;;;;25.30;6.15;;;6.40;99.90;;;;;;5069322;28;20486;-74
2023/12/16 07:53:53;;;;;;;39.08;7.47;;;6.40;99.90;;;;;;5063382;28;20056;-73
2023/12/16 07:56:22;;;;;;;27.48;7.53;;;6.40;99.90;;;;;;5069586;28;20048;-74
2023/12/16 07:58:48;;;;;;;28.38;6.97;;;6.60;99.90;;;;;;5069968;28;20181;-74
2023/12/16 08:01:14;;;;;;;29.00;6.53;;;6.50;99.90;;;;;;5058262;28;20056;-73
2023/12/16 08:03:40;;;;;;;27.88;6.68;;;6.50;99.90;;;;;;5052433;28;20103;-73
2023/12/16 08:06:06;;;;;;;28.88;7.25;;;6.50;99.90;;;;;;5052021;28;20041;-73
2023/12/16 08:08:32;;;;;;;26.40;6.80;;;6.50;99.90;;;;;;5052143;28;20546;-74
2023/12/16 08:10:57;;;;;;;31.75;8.65;;;6.50;99.90;;;;;;5050774;28;20041;-74
2023/12/16 08:13:23;;;;;;;35.85;7.47;;;6.60;99.90;;;;;;5052557;28;20428;-73
2023/12/16 08:15:48;;;;;;;31.27;8.18;;;6.60;99.90;;;;;;5050723;28;20389;-74
2023/12/16 08:18:15;;;;;;;32.78;7.40;;;6.60;99.90;;;;;;5050464;28;20140;-75
2023/12/16 08:20:41;;;;;;;24.88;7.18;;;6.60;99.90;;;;;;5052637;28;20079;-73
2023/12/16 08:23:08;;;;;;;24.17;6.47;;;6.60;99.90;;;;;;5054124;28;20037;-74
2023/12/16 08:25:35;;;;;;;28.48;7.10;;;6.70;99.90;;;;;;5064020;28;20119;-73
2023/12/16 08:28:01;;;;;;;29.15;7.57;;;6.70;99.90;;;;;;5064275;28;20056;-73
2023/12/16 08:30:27;;;;;;;22.60;8.52;;;6.60;99.90;;;;;;5064328;28;20740;-73
2023/12/16 08:32:53;;;;;;;21.13;7.55;;;6.70;99.90;;;;;;5064497;28;20053;-74
2023/12/16 08:35:18;;;;;;;29.58;7.18;;;6.90;99.90;;;;;;5060326;28;20056;-73
2023/12/16 08:37:44;;;;;;;35.65;9.35;;;6.70;99.90;;;;;;5063663;28;20049;-74
2023/12/16 08:40:10;;;;;;;30.77;9.75;;;6.60;99.90;;;;;;5065720;28;20033;-74
2023/12/16 08:42:37;;;;;;;27.13;8.68;;;6.70;99.90;;;;;;5066999;28;20078;-73
2023/12/16 08:45:03;;;;;;;33.53;8.57;;;6.80;99.90;;;;;;5070862;28;20055;-73
2023/12/16 08:47:29;;;;;;;33.75;8.18;;;6.70;99.90;;;;;;5063939;28;20045;-74
2023/12/16 08:49:55;;;;;;;38.33;8.95;;;6.70;99.90;;;;;;5058760;28;20053;-73
2023/12/16 08:52:20;;;;;;;37.15;10.60;;;6.70;99.90;;;;;;5063092;28;20101;-73
2023/12/16 08:54:46;;;;;;;29.33;8.63;;;6.70;99.90;;;;;;5064902;28;20072;-72
2023/12/16 08:57:12;;;;;;;27.90;7.93;;;6.70;99.90;;;;;;5067085;28;20076;-73
2023/12/16 08:59:38;;;;;;;33.63;9.63;;;6.70;99.90;;;;;;5073526;28;20487;-73
2023/12/16 09:02:05;;;;;;;33.85;8.90;;;6.80;99.90;;;;;;5064432;28;20052;-73
2023/12/16 09:04:31;;;;;;;25.52;8.27;;;6.80;99.90;;;;;;5067704;28;20045;-73
2023/12/16 09:06:56;;;;;;;28.45;8.93;;;6.80;99.90;;;;;;5053565;28;20072;-73
2023/12/16 09:09:22;;;;;;;33.28;10.27;;;6.80;99.90;;;;;;5060900;28;20147;-74
2023/12/16 09:11:48;;;;;;;31.80;9.10;;;6.80;99.90;;;;;;5072854;28;20067;-73
2023/12/16 09:14:14;;;;;;;38.05;9.40;;;6.90;99.90;;;;;;5059100;28;20049;-73
2023/12/16 09:16:40;;;;;;;33.42;9.48;;;6.90;99.90;;;;;;5062954;28;20039;-73
2023/12/16 09:19:07;;;;;;;28.00;8.82;;;6.80;99.90;;;;;;5058203;28;20404;-74
2023/12/16 09:21:33;;;;;;;34.67;9.13;;;6.80;99.90;;;;;;5068429;28;20064;-73
2023/12/16 09:23:59;;;;;;;31.05;9.13;;;6.80;99.90;;;;;;5062311;28;20044;-75
2023/12/16 09:26:25;;;;;;;39.47;11.30;;;6.80;99.90;;;;;;5073514;28;20048;-74
2023/12/16 09:28:51;;;;;;;31.58;10.02;;;6.80;99.90;;;;;;5073172;28;20119;-74
2023/12/16 09:31:17;;;;;;;36.33;10.57;;;6.80;99.90;;;;;;5071878;28;20059;-74
2023/12/16 09:33:43;;;;;;;34.05;10.35;;;6.80;99.90;;;;;;5068376;28;20032;-74
2023/12/16 09:36:13;;;;;;;34.92;10.20;;;6.80;99.90;;;;;;5066785;28;20514;-74
2023/12/16 09:38:42;;;;;;;36.97;11.02;;;6.70;99.90;;;;;;5052063;28;20041;-74
2023/12/16 09:41:26;;;;;;;29.67;9.38;;;6.80;99.90;;;;;;5055563;28;20143;-74
2023/12/16 09:43:53;;;;;;;39.85;11.60;;;6.70;99.90;;;;;;5065866;28;20045;-74
2023/12/16 09:46:20;;;;;;;40.80;11.45;;;6.70;99.90;;;;;;5055408;28;20794;-74
2023/12/16 09:48:47;;;;;;;36.28;12.38;;;6.80;99.90;;;;;;5072739;28;20045;-74
2023/12/16 09:51:13;;;;;;;48.65;12.43;;;6.90;99.90;;;;;;5058073;28;20060;-74
2023/12/16 09:53:39;;;;;;;40.78;12.15;;;6.80;99.90;;;;;;5060218;28;20183;-75
2023/12/16 09:56:06;;;;;;;35.45;11.18;;;6.80;99.90;;;;;;5060420;28;20132;-75
2023/12/16 09:58:33;;;;;;;44.72;13.15;;;6.80;99.90;;;;;;5059426;28;20049;-74
2023/12/16 10:01:01;;;;;;;42.97;12.98;;;6.80;99.90;;;;;;5061569;28;20114;-74
2023/12/16 10:03:27;;;;;;;36.70;12.48;;;6.80;99.90;;;;;;5044763;28;20095;-75
2023/12/16 10:05:53;;;;;;;45.28;12.68;;;6.80;99.90;;;;;;5057375;28;20435;-75
2023/12/16 10:08:19;;;;;;;40.25;13.25;;;6.80;99.90;;;;;;5061256;28;20052;-74
2023/12/16 10:10:44;;;;;;;49.13;13.18;;;6.80;99.90;;;;;;5061969;28;20049;-74
2023/12/16 10:13:10;;;;;;;50.17;13.90;;;6.90;99.90;;;;;;5058705;28;20068;-75
2023/12/16 10:15:37;;;;;;;41.17;12.15;;;6.80;99.90;;;;;;5057891;28;20120;-75
2023/12/16 10:18:03;;;;;;;43.92;13.52;;;7.10;99.90;;;;;;5055032;28;20052;-75
2023/12/16 10:20:30;;;;;;;46.08;13.05;;;6.90;99.90;;;;;;5058612;28;20048;-74
2023/12/16 10:22:56;;;;;;;40.75;13.68;;;6.90;99.90;;;;;;5058505;28;20131;-74
2023/12/16 10:25:21;;;;;;;41.28;12.38;;;6.90;99.90;;;;;;5059981;28;20049;-75
2023/12/16 10:27:49;;;;;;;42.47;14.00;;;7.30;99.90;;;;;;5061405;28;20093;-75
2023/12/16 10:30:15;;;;;;;48.08;14.98;;;6.90;99.90;;;;;;5053564;28;20118;-73
2023/12/16 10:32:41;;;;;;;46.58;13.85;;;6.90;99.90;;;;;;5059883;28;20083;-73
2023/12/16 10:35:07;;;;;;;42.97;14.82;;;7.00;99.90;;;;;;5060330;28;20048;-75
2023/12/16 10:37:33;;;;;;;43.22;14.95;;;7.00;99.90;;;;;;5063996;28;20040;-76
2023/12/16 10:39:59;;;;;;;41.80;13.82;;;7.00;99.90;;;;;;5059520;28;20048;-73
2023/12/16 10:42:25;;;;;;;39.78;14.88;;;7.20;99.90;;;;;;5063128;28;20048;-74
2023/12/16 10:44:54;;;;;;;68.90;17.48;;;7.00;99.90;;;;;;5059464;28;20442;-72
2023/12/16 10:47:27;;;;;;;37.38;13.20;;;7.20;99.90;;;;;;5044753;28;20032;-76
2023/12/16 10:49:57;;;;;;;42.50;14.05;;;7.00;99.90;;;;;;5057654;28;20063;-79
2023/12/16 10:52:23;;;;;;;35.83;13.57;;;7.00;99.90;;;;;;5060512;28;20076;-73
2023/12/16 10:54:59;;;;;;;43.15;13.65;;;7.00;99.90;;;;;;5056745;28;20076;-72
2023/12/16 10:57:37;;;;;;;49.40;16.77;;;7.00;99.90;;;;;;5056227;28;20540;-73
2023/12/16 11:00:06;;;;;;;42.97;12.90;;;7.00;99.90;;;;;;5061086;28;20115;-73
2023/12/16 11:02:37;;;;;;;41.38;15.88;;;7.00;99.90;;;;;;5054492;28;20045;-74
2023/12/16 11:05:10;;;;;;;45.85;17.05;;;7.00;99.90;;;;;;5058668;28;20079;-74
2023/12/16 11:07:39;;;;;;;42.90;14.73;;;7.00;99.90;;;;;;5052894;28;20124;-74
2023/12/16 11:10:06;;;;;;;42.88;14.73;;;7.00;99.90;;;;;;5064823;28;20051;-74
2023/12/16 11:12:37;;;;;;;46.33;15.90;;;7.00;99.90;;;;;;5071556;28;20084;-74
2023/12/16 11:15:05;;;;;;;42.58;16.23;;;7.10;99.90;;;;;;5062345;28;20044;-74
2023/12/16 11:17:39;;;;;;;44.03;17.38;;;7.10;99.90;;;;;;5060763;28;20052;-73
2023/12/16 11:20:08;;;;;;;34.45;15.30;;;7.10;99.90;;;;;;5063129;28;20060;-72
2023/12/16 11:22:53;;;;;;;34.08;14.65;;;7.10;99.90;;;;;;5058568;28;20068;-76
2023/12/16 11:25:20;;;;;;;53.75;16.77;;;7.10;99.90;;;;;;5061060;28;20481;-74
2023/12/16 11:27:50;;;;;;;44.67;17.85;;;7.10;99.90;;;;;;5055485;28;20052;-73
2023/12/16 11:30:17;;;;;;;40.53;16.17;;;7.10;99.90;;;;;;5056903;28;20086;-73
2023/12/16 11:32:50;;;;;;;49.38;17.25;;;7.30;99.90;;;;;;5050664;28;20037;-73
2023/12/16 11:35:36;;;;;;;33.95;15.85;;;7.30;99.90;;;;;;5062741;28;20059;-73
2023/12/16 11:38:08;;;;;;;32.53;15.10;;;7.20;99.90;;;;;;5064391;28;20957;-74
2023/12/16 11:40:46;;;;;;;37.38;15.68;;;7.20;99.90;;;;;;5059604;28;20093;-73
2023/12/16 11:43:12;;;;;;;37.53;16.90;;;7.30;99.90;;;;;;5062967;28;20504;-77
2023/12/16 11:45:46;;;;;;;37.72;15.45;;;7.30;99.90;;;;;;5064415;28;20036;-73
2023/12/16 11:48:16;;;;;;;37.72;17.27;;;7.30;99.90;;;;;;5051112;28;20466;-77
2023/12/16 11:50:46;;;;;;;41.13;16.67;;;7.30;99.90;;;;;;5052423;28;20095;-73
2023/12/16 11:53:18;;;;;;;37.78;16.00;;;7.30;99.90;;;;;;5069631;28;20841;-75
2023/12/16 11:55:44;;;;;;;40.00;17.75;;;7.40;99.90;;;;;;5054214;28;20447;-73
2023/12/16 11:58:10;;;;;;;38.20;16.60;;;7.40;99.90;;;;;;5068092;28;20056;-73
2023/12/16 12:00:36;;;;;;;43.47;18.10;;;7.40;99.90;;;;;;5069239;28;20610;-73
2023/12/16 12:03:02;;;;;;;42.92;17.35;;;7.40;99.90;;;;;;5061658;28;20048;-73
2023/12/16 12:05:29;;;;;;;42.22;17.25;;;7.40;99.90;;;;;;5060075;28;20113;-75
2023/12/16 12:07:55;;;;;;;47.90;17.23;;;7.50;99.90;;;;;;5065107;28;20048;-73
2023/12/16 12:10:22;;;;;;;35.88;16.10;;;7.50;99.90;;;;;;5064376;28;20037;-77
2023/12/16 12:12:50;;;;;;;34.83;14.98;;;7.50;99.90;;;;;;5070154;28;20559;-74
2023/12/16 12:15:16;;;;;;;27.30;13.30;;;7.60;99.90;;;;;;5060906;28;20060;-74
2023/12/16 12:17:41;;;;;;;32.90;14.65;;;7.50;99.90;;;;;;5067257;28;20036;-73
2023/12/16 12:20:10;;;;;;;32.42;13.80;;;7.60;99.90;;;;;;5065176;28;20052;-73
2023/12/16 12:22:36;;;;;;;24.00;11.50;;;7.60;99.90;;;;;;5062026;28;20049;-73
2023/12/16 12:25:02;;;;;;;27.05;11.73;;;7.60;99.90;;;;;;5056201;28;20041;-73
2023/12/16 12:27:29;;;;;;;28.38;11.65;;;7.70;99.90;;;;;;5071015;28;20064;-74
2023/12/16 12:29:58;;;;;;;33.20;12.70;;;7.70;99.90;;;;;;5057237;28;20600;-73
2023/12/16 12:32:28;;;;;;;27.42;12.32;;;7.80;99.90;;;;;;5061062;28;20056;-73
2023/12/16 12:35:03;;;;;;;24.67;11.50;;;7.80;99.90;;;;;;5066737;28;20488;-76
2023/12/16 12:37:39;;;;;;;25.13;12.20;;;7.80;99.90;;;;;;5064430;28;20503;-73
2023/12/16 12:40:14;;;;;;;26.58;11.73;;;7.90;99.90;;;;;;5065068;28;20064;-73
2023/12/16 12:42:54;;;;;;;22.67;10.68;;;7.90;99.90;;;;;;5072829;28;20040;-73